sensor_id;sensor_type;location;lat;lon;timestamp;P1;durP1;ratioP1;P2;durP2;ratioP2
1082;SDS011;530;51.448;7.238;2022-10-14T00:01:48;13.60;;;11.83;;
1082;SDS011;530;51.448;7.238;2022-10-14T00:04:14;18.40;;;13.30;;
1082;SDS011;530;51.448;7.238;2022-10-14T00:06:40;16.90;;;12.43;;
1082;SDS011;530;51.448;7.238;2022-10-14T00:09:06;15.63;;;12.43;;
1082;SDS011;530;51.448;7.238;2022-10-14T00:11:33;18.47;;;12.33;;
1082;SDS011;530;51.448;7.238;2022-10-14T00:14:03;14.10;;;12.10;;
1082;SDS011;530;51.448;7.238;2022-10-14T00:16:35;14.27;;;12.37;;
1082;SDS011;530;51.448;7.238;2022-10-14T00:19:04;15.70;;;12.00;;
1082;SDS011;530;51.448;7.238;2022-10-14T00:21:30;15.37;;;12.57;;
1082;SDS011;530;51.448;7.238;2022-10-14T00:23:57;14.43;;;11.80;;
1082;SDS011;530;51.448;7.238;2022-10-14T00:26:30;14.10;;;12.60;;
1082;SDS011;530;51.448;7.238;2022-10-14T00:29:00;13.27;;;11.97;;
1082;SDS011;530;51.448;7.238;2022-10-14T00:31:27;16.37;;;12.47;;
1082;SDS011;530;51.448;7.238;2022-10-14T00:33:53;14.63;;;13.13;;
1082;SDS011;530;51.448;7.238;2022-10-14T00:36:20;16.37;;;13.43;;
1082;SDS011;530;51.448;7.238;2022-10-14T00:38:47;16.20;;;13.57;;
1082;SDS011;530;51.448;7.238;2022-10-14T00:41:18;17.20;;;12.60;;
1082;SDS011;530;51.448;7.238;2022-10-14T00:46:22;15.60;;;13.30;;
1082;SDS011;530;51.448;7.238;2022-10-14T00:48:48;14.17;;;12.67;;
1082;SDS011;530;51.448;7.238;2022-10-14T00:51:15;16.97;;;14.10;;
1082;SDS011;530;51.448;7.238;2022-10-14T00:53:41;16.10;;;14.30;;
1082;SDS011;530;51.448;7.238;2022-10-14T00:56:08;17.27;;;13.70;;
1082;SDS011;530;51.448;7.238;2022-10-14T00:58:36;14.80;;;13.30;;
1082;SDS011;530;51.448;7.238;2022-10-14T01:01:02;18.77;;;14.43;;
1082;SDS011;530;51.448;7.238;2022-10-14T01:03:29;19.00;;;13.67;;
1082;SDS011;530;51.448;7.238;2022-10-14T01:05:59;16.60;;;14.50;;
1082;SDS011;530;51.448;7.238;2022-10-14T01:08:34;19.70;;;15.40;;
1082;SDS011;530;51.448;7.238;2022-10-14T01:11:21;21.57;;;15.47;;
1082;SDS011;530;51.448;7.238;2022-10-14T01:14:01;18.00;;;16.07;;
1082;SDS011;530;51.448;7.238;2022-10-14T01:16:49;17.10;;;14.63;;
1082;SDS011;530;51.448;7.238;2022-10-14T01:19:58;19.77;;;14.97;;
1082;SDS011;530;51.448;7.238;2022-10-14T01:22:37;19.10;;;14.60;;
1082;SDS011;530;51.448;7.238;2022-10-14T01:25:25;18.27;;;15.53;;
1082;SDS011;530;51.448;7.238;2022-10-14T01:30:44;16.70;;;14.90;;
1082;SDS011;530;51.448;7.238;2022-10-14T01:33:21;16.63;;;14.50;;
1082;SDS011;530;51.448;7.238;2022-10-14T01:38:40;16.37;;;14.67;;
1082;SDS011;530;51.448;7.238;2022-10-14T01:41:35;15.60;;;13.20;;
1082;SDS011;530;51.448;7.238;2022-10-14T01:44:07;16.40;;;13.53;;
1082;SDS011;530;51.448;7.238;2022-10-14T01:46:35;16.30;;;14.60;;
1082;SDS011;530;51.448;7.238;2022-10-14T01:49:06;16.83;;;13.67;;
1082;SDS011;530;51.448;7.238;2022-10-14T01:51:40;16.67;;;14.23;;
1082;SDS011;530;51.448;7.238;2022-10-14T01:54:17;15.60;;;14.00;;
1082;SDS011;530;51.448;7.238;2022-10-14T01:56:47;20.03;;;14.73;;
1082;SDS011;530;51.448;7.238;2022-10-14T01:59:15;14.77;;;13.23;;
1082;SDS011;530;51.448;7.238;2022-10-14T02:01:42;15.63;;;13.10;;
1082;SDS011;530;51.448;7.238;2022-10-14T02:04:26;14.70;;;13.20;;
1082;SDS011;530;51.448;7.238;2022-10-14T02:07:03;13.87;;;12.47;;
1082;SDS011;530;51.448;7.238;2022-10-14T02:14:46;14.50;;;12.23;;
1082;SDS011;530;51.448;7.238;2022-10-14T02:17:21;13.90;;;12.50;;
1082;SDS011;530;51.448;7.238;2022-10-14T02:20:02;17.17;;;12.43;;
1082;SDS011;530;51.448;7.238;2022-10-14T02:22:41;14.93;;;13.00;;
1082;SDS011;530;51.448;7.238;2022-10-14T02:25:17;13.80;;;11.83;;
1082;SDS011;530;51.448;7.238;2022-10-14T02:27:45;13.27;;;12.00;;
1082;SDS011;530;51.448;7.238;2022-10-14T02:30:12;13.50;;;12.20;;
1082;SDS011;530;51.448;7.238;2022-10-14T02:32:39;12.50;;;11.20;;
1082;SDS011;530;51.448;7.238;2022-10-14T02:35:06;13.67;;;12.23;;
1082;SDS011;530;51.448;7.238;2022-10-14T02:37:34;12.80;;;11.00;;
1082;SDS011;530;51.448;7.238;2022-10-14T02:40:09;11.93;;;10.60;;
1082;SDS011;530;51.448;7.238;2022-10-14T02:42:38;12.40;;;11.10;;
1082;SDS011;530;51.448;7.238;2022-10-14T02:45:05;12.23;;;10.93;;
1082;SDS011;530;51.448;7.238;2022-10-14T02:47:33;11.80;;;10.60;;
1082;SDS011;530;51.448;7.238;2022-10-14T02:49:58;13.87;;;11.63;;
1082;SDS011;530;51.448;7.238;2022-10-14T02:52:24;12.70;;;11.47;;
1082;SDS011;530;51.448;7.238;2022-10-14T02:54:50;12.73;;;11.43;;
1082;SDS011;530;51.448;7.238;2022-10-14T02:57:15;13.20;;;11.87;;
1082;SDS011;530;51.448;7.238;2022-10-14T02:59:41;12.10;;;10.90;;
1082;SDS011;530;51.448;7.238;2022-10-14T03:02:07;13.73;;;12.33;;
1082;SDS011;530;51.448;7.238;2022-10-14T03:04:33;12.77;;;11.47;;
1082;SDS011;530;51.448;7.238;2022-10-14T03:06:59;12.90;;;11.60;;
1082;SDS011;530;51.448;7.238;2022-10-14T03:09:24;13.87;;;11.50;;
1082;SDS011;530;51.448;7.238;2022-10-14T03:11:50;13.90;;;11.50;;
1082;SDS011;530;51.448;7.238;2022-10-14T03:14:15;13.63;;;12.23;;
1082;SDS011;530;51.448;7.238;2022-10-14T03:16:41;13.37;;;11.60;;
1082;SDS011;530;51.448;7.238;2022-10-14T03:19:07;13.70;;;12.30;;
1082;SDS011;530;51.448;7.238;2022-10-14T03:21:32;18.43;;;12.30;;
1082;SDS011;530;51.448;7.238;2022-10-14T03:23:58;14.20;;;12.70;;
1082;SDS011;530;51.448;7.238;2022-10-14T03:26:25;13.87;;;12.13;;
1082;SDS011;530;51.448;7.238;2022-10-14T03:28:51;14.00;;;12.60;;
1082;SDS011;530;51.448;7.238;2022-10-14T03:31:16;13.60;;;12.20;;
1082;SDS011;530;51.448;7.238;2022-10-14T03:33:42;13.97;;;12.00;;
1082;SDS011;530;51.448;7.238;2022-10-14T03:36:08;11.90;;;10.40;;
1082;SDS011;530;51.448;7.238;2022-10-14T03:38:33;13.17;;;11.20;;
1082;SDS011;530;51.448;7.238;2022-10-14T03:40:59;11.37;;;10.27;;
1082;SDS011;530;51.448;7.238;2022-10-14T03:43:25;13.13;;;11.63;;
1082;SDS011;530;51.448;7.238;2022-10-14T03:45:52;11.27;;;10.07;;
1082;SDS011;530;51.448;7.238;2022-10-14T03:48:18;13.03;;;11.10;;
1082;SDS011;530;51.448;7.238;2022-10-14T03:50:45;11.70;;;10.50;;
1082;SDS011;530;51.448;7.238;2022-10-14T03:53:11;11.07;;;9.97;;
1082;SDS011;530;51.448;7.238;2022-10-14T03:55:37;11.50;;;10.20;;
1082;SDS011;530;51.448;7.238;2022-10-14T03:58:03;14.63;;;9.20;;
1082;SDS011;530;51.448;7.238;2022-10-14T04:00:29;12.03;;;10.70;;
1082;SDS011;530;51.448;7.238;2022-10-14T04:02:54;13.10;;;10.47;;
1082;SDS011;530;51.448;7.238;2022-10-14T04:05:20;10.67;;;9.60;;
1082;SDS011;530;51.448;7.238;2022-10-14T04:07:45;10.47;;;9.37;;
1082;SDS011;530;51.448;7.238;2022-10-14T04:10:11;11.60;;;9.97;;
1082;SDS011;530;51.448;7.238;2022-10-14T04:12:37;11.50;;;10.30;;
1082;SDS011;530;51.448;7.238;2022-10-14T04:15:05;11.63;;;9.17;;
1082;SDS011;530;51.448;7.238;2022-10-14T04:17:33;11.83;;;10.73;;
1082;SDS011;530;51.448;7.238;2022-10-14T04:19:59;11.23;;;9.23;;
1082;SDS011;530;51.448;7.238;2022-10-14T04:22:25;10.83;;;9.73;;
1082;SDS011;530;51.448;7.238;2022-10-14T04:24:51;11.03;;;9.70;;
1082;SDS011;530;51.448;7.238;2022-10-14T04:27:17;10.30;;;8.90;;
1082;SDS011;530;51.448;7.238;2022-10-14T04:29:42;10.50;;;9.40;;
1082;SDS011;530;51.448;7.238;2022-10-14T04:32:08;10.37;;;9.27;;
1082;SDS011;530;51.448;7.238;2022-10-14T04:34:34;10.33;;;9.23;;
1082;SDS011;530;51.448;7.238;2022-10-14T04:36:59;10.43;;;9.40;;
1082;SDS011;530;51.448;7.238;2022-10-14T04:39:25;10.17;;;9.17;;
1082;SDS011;530;51.448;7.238;2022-10-14T04:41:51;9.70;;;8.80;;
1082;SDS011;530;51.448;7.238;2022-10-14T04:44:16;9.80;;;8.83;;
1082;SDS011;530;51.448;7.238;2022-10-14T04:46:42;9.30;;;8.40;;
1082;SDS011;530;51.448;7.238;2022-10-14T04:49:08;10.43;;;9.43;;
1082;SDS011;530;51.448;7.238;2022-10-14T04:51:34;10.13;;;9.00;;
1082;SDS011;530;51.448;7.238;2022-10-14T04:53:59;9.30;;;8.40;;
1082;SDS011;530;51.448;7.238;2022-10-14T04:56:25;9.40;;;8.50;;
1082;SDS011;530;51.448;7.238;2022-10-14T04:58:51;9.47;;;8.57;;
1082;SDS011;530;51.448;7.238;2022-10-14T05:01:16;9.70;;;8.70;;
1082;SDS011;530;51.448;7.238;2022-10-14T05:03:42;9.83;;;8.87;;
1082;SDS011;530;51.448;7.238;2022-10-14T05:06:08;10.40;;;9.07;;
1082;SDS011;530;51.448;7.238;2022-10-14T05:08:34;8.47;;;7.67;;
1082;SDS011;530;51.448;7.238;2022-10-14T05:11:01;9.10;;;8.30;;
1082;SDS011;530;51.448;7.238;2022-10-14T05:13:27;9.60;;;8.70;;
1082;SDS011;530;51.448;7.238;2022-10-14T05:15:53;8.50;;;7.67;;
1082;SDS011;530;51.448;7.238;2022-10-14T05:18:19;10.13;;;9.17;;
1082;SDS011;530;51.448;7.238;2022-10-14T05:20:45;8.57;;;7.70;;
1082;SDS011;530;51.448;7.238;2022-10-14T05:23:10;10.73;;;8.80;;
1082;SDS011;530;51.448;7.238;2022-10-14T05:25:36;9.10;;;8.30;;
1082;SDS011;530;51.448;7.238;2022-10-14T05:28:01;9.70;;;8.73;;
1082;SDS011;530;51.448;7.238;2022-10-14T05:30:27;7.90;;;7.20;;
1082;SDS011;530;51.448;7.238;2022-10-14T05:32:53;8.97;;;8.10;;
1082;SDS011;530;51.448;7.238;2022-10-14T05:35:19;9.97;;;8.90;;
1082;SDS011;530;51.448;7.238;2022-10-14T05:37:44;8.63;;;7.83;;
1082;SDS011;530;51.448;7.238;2022-10-14T05:40:10;8.70;;;7.90;;
1082;SDS011;530;51.448;7.238;2022-10-14T05:42:36;8.90;;;8.10;;
1082;SDS011;530;51.448;7.238;2022-10-14T05:45:02;7.43;;;6.80;;
1082;SDS011;530;51.448;7.238;2022-10-14T05:47:28;8.07;;;7.30;;
1082;SDS011;530;51.448;7.238;2022-10-14T05:49:54;8.23;;;7.43;;
1082;SDS011;530;51.448;7.238;2022-10-14T05:52:20;8.07;;;7.27;;
1082;SDS011;530;51.448;7.238;2022-10-14T05:54:45;8.80;;;7.90;;
1082;SDS011;530;51.448;7.238;2022-10-14T05:57:11;8.83;;;7.80;;
1082;SDS011;530;51.448;7.238;2022-10-14T05:59:36;7.80;;;7.10;;
1082;SDS011;530;51.448;7.238;2022-10-14T06:02:02;9.03;;;8.23;;
1082;SDS011;530;51.448;7.238;2022-10-14T06:04:28;7.97;;;7.20;;
1082;SDS011;530;51.448;7.238;2022-10-14T06:06:54;7.77;;;7.07;;
1082;SDS011;530;51.448;7.238;2022-10-14T06:09:19;7.57;;;6.87;;
1082;SDS011;530;51.448;7.238;2022-10-14T06:11:45;8.03;;;7.23;;
1082;SDS011;530;51.448;7.238;2022-10-14T06:14:11;7.60;;;6.90;;
1082;SDS011;530;51.448;7.238;2022-10-14T06:16:37;7.40;;;6.70;;
1082;SDS011;530;51.448;7.238;2022-10-14T06:19:02;7.37;;;6.67;;
1082;SDS011;530;51.448;7.238;2022-10-14T06:21:28;7.80;;;7.13;;
1082;SDS011;530;51.448;7.238;2022-10-14T06:23:53;7.80;;;7.10;;
1082;SDS011;530;51.448;7.238;2022-10-14T06:26:19;8.53;;;7.73;;
1082;SDS011;530;51.448;7.238;2022-10-14T06:28:45;7.90;;;7.10;;
1082;SDS011;530;51.448;7.238;2022-10-14T06:31:11;7.97;;;7.17;;
1082;SDS011;530;51.448;7.238;2022-10-14T06:33:36;6.23;;;5.63;;
1082;SDS011;530;51.448;7.238;2022-10-14T06:36:03;7.77;;;6.33;;
1082;SDS011;530;51.448;7.238;2022-10-14T06:38:30;7.53;;;6.77;;
1082;SDS011;530;51.448;7.238;2022-10-14T06:40:56;7.03;;;6.43;;
1082;SDS011;530;51.448;7.238;2022-10-14T06:43:21;6.60;;;6.00;;
1082;SDS011;530;51.448;7.238;2022-10-14T06:45:47;6.27;;;5.70;;
1082;SDS011;530;51.448;7.238;2022-10-14T06:48:13;6.30;;;5.70;;
1082;SDS011;530;51.448;7.238;2022-10-14T06:50:40;5.10;;;4.70;;
1082;SDS011;530;51.448;7.238;2022-10-14T06:53:06;6.47;;;5.70;;
1082;SDS011;530;51.448;7.238;2022-10-14T06:55:32;6.87;;;6.17;;
1082;SDS011;530;51.448;7.238;2022-10-14T06:57:58;7.63;;;5.80;;
1082;SDS011;530;51.448;7.238;2022-10-14T07:00:23;6.70;;;6.10;;
1082;SDS011;530;51.448;7.238;2022-10-14T07:02:49;6.90;;;6.30;;
1082;SDS011;530;51.448;7.238;2022-10-14T07:05:14;6.70;;;5.40;;
1082;SDS011;530;51.448;7.238;2022-10-14T07:07:40;7.07;;;6.47;;
1082;SDS011;530;51.448;7.238;2022-10-14T07:10:06;6.90;;;6.20;;
1082;SDS011;530;51.448;7.238;2022-10-14T07:12:32;6.77;;;6.17;;
1082;SDS011;530;51.448;7.238;2022-10-14T07:14:57;6.93;;;6.30;;
1082;SDS011;530;51.448;7.238;2022-10-14T07:17:23;6.20;;;5.70;;
1082;SDS011;530;51.448;7.238;2022-10-14T07:19:49;6.40;;;5.80;;
1082;SDS011;530;51.448;7.238;2022-10-14T07:22:14;6.00;;;5.50;;
1082;SDS011;530;51.448;7.238;2022-10-14T07:24:41;6.33;;;5.73;;
1082;SDS011;530;51.448;7.238;2022-10-14T07:27:08;7.13;;;5.50;;
1082;SDS011;530;51.448;7.238;2022-10-14T07:29:34;6.43;;;5.30;;
1082;SDS011;530;51.448;7.238;2022-10-14T07:32:00;5.40;;;4.97;;
1082;SDS011;530;51.448;7.238;2022-10-14T07:34:26;5.80;;;5.40;;
1082;SDS011;530;51.448;7.238;2022-10-14T07:36:52;5.90;;;5.40;;
1082;SDS011;530;51.448;7.238;2022-10-14T07:39:17;5.23;;;4.73;;
1082;SDS011;530;51.448;7.238;2022-10-14T07:41:43;4.90;;;4.50;;
1082;SDS011;530;51.448;7.238;2022-10-14T07:44:09;8.07;;;5.40;;
1082;SDS011;530;51.448;7.238;2022-10-14T07:46:38;6.03;;;5.43;;
1082;SDS011;530;51.448;7.238;2022-10-14T07:49:09;5.10;;;4.70;;
1082;SDS011;530;51.448;7.238;2022-10-14T07:51:38;5.83;;;5.20;;
1082;SDS011;530;51.448;7.238;2022-10-14T07:54:06;5.93;;;5.43;;
1082;SDS011;530;51.448;7.238;2022-10-14T07:56:34;8.30;;;5.70;;
1082;SDS011;530;51.448;7.238;2022-10-14T07:59:03;6.10;;;5.50;;
1082;SDS011;530;51.448;7.238;2022-10-14T08:01:29;5.60;;;5.10;;
1082;SDS011;530;51.448;7.238;2022-10-14T08:03:55;5.70;;;5.20;;
1082;SDS011;530;51.448;7.238;2022-10-14T08:06:21;4.90;;;4.50;;
1082;SDS011;530;51.448;7.238;2022-10-14T08:08:46;5.47;;;4.97;;
1082;SDS011;530;51.448;7.238;2022-10-14T08:11:14;5.13;;;4.70;;
1082;SDS011;530;51.448;7.238;2022-10-14T08:13:40;5.20;;;4.70;;
1082;SDS011;530;51.448;7.238;2022-10-14T08:18:39;4.10;;;3.70;;
1082;SDS011;530;51.448;7.238;2022-10-14T08:21:05;4.23;;;3.37;;
1082;SDS011;530;51.448;7.238;2022-10-14T08:23:31;3.83;;;3.47;;
1082;SDS011;530;51.448;7.238;2022-10-14T08:25:57;3.70;;;3.40;;
1082;SDS011;530;51.448;7.238;2022-10-14T08:28:22;3.80;;;3.50;;
1082;SDS011;530;51.448;7.238;2022-10-14T08:30:48;4.20;;;3.37;;
1082;SDS011;530;51.448;7.238;2022-10-14T08:33:14;3.67;;;3.37;;
1082;SDS011;530;51.448;7.238;2022-10-14T08:35:40;3.47;;;3.00;;
1082;SDS011;530;51.448;7.238;2022-10-14T08:38:06;3.77;;;3.43;;
1082;SDS011;530;51.448;7.238;2022-10-14T08:40:33;3.20;;;2.90;;
1082;SDS011;530;51.448;7.238;2022-10-14T08:49:12;3.10;;;2.77;;
1082;SDS011;530;51.448;7.238;2022-10-14T08:51:47;3.07;;;2.80;;
1082;SDS011;530;51.448;7.238;2022-10-14T08:54:40;5.00;;;2.60;;
1082;SDS011;530;51.448;7.238;2022-10-14T08:57:11;2.80;;;2.30;;
1082;SDS011;530;51.448;7.238;2022-10-14T08:59:41;3.20;;;2.90;;
1082;SDS011;530;51.448;7.238;2022-10-14T09:02:14;2.40;;;2.20;;
1082;SDS011;530;51.448;7.238;2022-10-14T09:04:48;3.60;;;2.50;;
1082;SDS011;530;51.448;7.238;2022-10-14T09:07:15;2.53;;;2.10;;
1082;SDS011;530;51.448;7.238;2022-10-14T09:09:43;2.50;;;2.30;;
1082;SDS011;530;51.448;7.238;2022-10-14T09:12:25;2.10;;;2.00;;
1082;SDS011;530;51.448;7.238;2022-10-14T09:17:42;2.10;;;2.00;;
1082;SDS011;530;51.448;7.238;2022-10-14T09:22:49;2.17;;;1.80;;
1082;SDS011;530;51.448;7.238;2022-10-14T09:25:24;2.47;;;2.20;;
1082;SDS011;530;51.448;7.238;2022-10-14T09:27:51;3.10;;;2.30;;
1082;SDS011;530;51.448;7.238;2022-10-14T09:30:16;2.17;;;1.97;;
1082;SDS011;530;51.448;7.238;2022-10-14T09:32:49;2.20;;;1.90;;
1082;SDS011;530;51.448;7.238;2022-10-14T09:35:34;2.00;;;1.87;;
1082;SDS011;530;51.448;7.238;2022-10-14T09:38:03;2.27;;;1.87;;
1082;SDS011;530;51.448;7.238;2022-10-14T09:40:36;3.10;;;2.10;;
1082;SDS011;530;51.448;7.238;2022-10-14T09:48:11;1.80;;;1.47;;
1082;SDS011;530;51.448;7.238;2022-10-14T09:50:59;2.10;;;1.90;;
1082;SDS011;530;51.448;7.238;2022-10-14T09:53:27;2.00;;;1.63;;
1082;SDS011;530;51.448;7.238;2022-10-14T09:55:56;2.53;;;1.73;;
1082;SDS011;530;51.448;7.238;2022-10-14T10:01:15;3.07;;;2.10;;
1082;SDS011;530;51.448;7.238;2022-10-14T10:03:43;2.70;;;1.93;;
1082;SDS011;530;51.448;7.238;2022-10-14T10:06:12;2.17;;;2.07;;
1082;SDS011;530;51.448;7.238;2022-10-14T10:08:53;2.27;;;2.03;;
1082;SDS011;530;51.448;7.238;2022-10-14T10:11:29;2.17;;;1.97;;
1082;SDS011;530;51.448;7.238;2022-10-14T10:13:57;3.30;;;2.07;;
1082;SDS011;530;51.448;7.238;2022-10-14T10:16:24;2.30;;;2.10;;
1082;SDS011;530;51.448;7.238;2022-10-14T10:18:53;2.33;;;2.07;;
1082;SDS011;530;51.448;7.238;2022-10-14T10:21:26;2.87;;;2.20;;
1082;SDS011;530;51.448;7.238;2022-10-14T10:24:01;2.23;;;2.03;;
1082;SDS011;530;51.448;7.238;2022-10-14T10:28:55;2.67;;;2.47;;
1082;SDS011;530;51.448;7.238;2022-10-14T10:39:57;4.50;;;2.20;;
1082;SDS011;530;51.448;7.238;2022-10-14T10:50:28;2.93;;;2.33;;
1082;SDS011;530;51.448;7.238;2022-10-14T10:58:46;2.40;;;2.20;;
1082;SDS011;530;51.448;7.238;2022-10-14T11:04:13;2.50;;;2.30;;
1082;SDS011;530;51.448;7.238;2022-10-14T11:12:55;2.73;;;2.40;;
1082;SDS011;530;51.448;7.238;2022-10-14T11:15:29;3.97;;;2.90;;
1082;SDS011;530;51.448;7.238;2022-10-14T11:18:09;3.23;;;2.80;;
1082;SDS011;530;51.448;7.238;2022-10-14T11:20:45;4.97;;;3.10;;
1082;SDS011;530;51.448;7.238;2022-10-14T11:23:47;4.07;;;3.00;;
1082;SDS011;530;51.448;7.238;2022-10-14T11:39:53;4.30;;;3.70;;
1082;SDS011;530;51.448;7.238;2022-10-14T11:48:05;7.10;;;4.13;;
1082;SDS011;530;51.448;7.238;2022-10-14T11:50:41;5.70;;;5.20;;
1082;SDS011;530;51.448;7.238;2022-10-14T11:53:14;8.43;;;5.50;;
1082;SDS011;530;51.448;7.238;2022-10-14T11:56:45;5.87;;;5.03;;
1082;SDS011;530;51.448;7.238;2022-10-14T11:58:53;5.80;;;5.10;;
1082;SDS011;530;51.448;7.238;2022-10-14T12:01:41;7.70;;;5.37;;
1082;SDS011;530;51.448;7.238;2022-10-14T12:04:09;5.87;;;5.33;;
1082;SDS011;530;51.448;7.238;2022-10-14T12:06:43;6.13;;;5.53;;
1082;SDS011;530;51.448;7.238;2022-10-14T12:12:15;5.87;;;5.37;;
1082;SDS011;530;51.448;7.238;2022-10-14T12:14:46;6.77;;;5.70;;
1082;SDS011;530;51.448;7.238;2022-10-14T12:19:47;9.27;;;5.67;;
1082;SDS011;530;51.448;7.238;2022-10-14T12:24:53;7.07;;;5.53;;
1082;SDS011;530;51.448;7.238;2022-10-14T12:27:23;6.20;;;5.60;;
1082;SDS011;530;51.448;7.238;2022-10-14T12:29:51;7.20;;;6.03;;
1082;SDS011;530;51.448;7.238;2022-10-14T12:32:23;7.43;;;6.53;;
1082;SDS011;530;51.448;7.238;2022-10-14T12:34:56;6.30;;;5.70;;
1082;SDS011;530;51.448;7.238;2022-10-14T12:45:25;8.97;;;6.47;;
1082;SDS011;530;51.448;7.238;2022-10-14T12:50:47;6.53;;;5.83;;
1082;SDS011;530;51.448;7.238;2022-10-14T12:53:21;9.40;;;6.70;;
1082;SDS011;530;51.448;7.238;2022-10-14T12:55:49;8.20;;;7.00;;
1082;SDS011;530;51.448;7.238;2022-10-14T12:58:29;8.90;;;6.63;;
1082;SDS011;530;51.448;7.238;2022-10-14T13:01:19;7.80;;;6.83;;
1082;SDS011;530;51.448;7.238;2022-10-14T13:04:13;10.23;;;7.67;;
1082;SDS011;530;51.448;7.238;2022-10-14T13:06:42;7.27;;;6.50;;
1082;SDS011;530;51.448;7.238;2022-10-14T13:11:37;8.83;;;7.57;;
1082;SDS011;530;51.448;7.238;2022-10-14T13:14:18;7.90;;;7.10;;
1082;SDS011;530;51.448;7.238;2022-10-14T13:22:01;8.83;;;6.63;;
1082;SDS011;530;51.448;7.238;2022-10-14T13:24:47;6.57;;;5.60;;
1082;SDS011;530;51.448;7.238;2022-10-14T13:27:14;8.53;;;6.00;;
1082;SDS011;530;51.448;7.238;2022-10-14T13:37:39;6.13;;;5.23;;
1082;SDS011;530;51.448;7.238;2022-10-14T13:40:25;5.83;;;4.20;;
1082;SDS011;530;51.448;7.238;2022-10-14T13:42:54;5.43;;;4.27;;
1082;SDS011;530;51.448;7.238;2022-10-14T13:45:23;4.63;;;4.10;;
1082;SDS011;530;51.448;7.238;2022-10-14T13:48:14;4.07;;;3.70;;
1082;SDS011;530;51.448;7.238;2022-10-14T13:50:44;5.47;;;4.80;;
1082;SDS011;530;51.448;7.238;2022-10-14T13:53:17;4.83;;;4.43;;
1082;SDS011;530;51.448;7.238;2022-10-14T13:55:46;4.80;;;4.10;;
1082;SDS011;530;51.448;7.238;2022-10-14T13:58:17;5.27;;;4.50;;
1082;SDS011;530;51.448;7.238;2022-10-14T14:03:26;5.30;;;4.40;;
1082;SDS011;530;51.448;7.238;2022-10-14T14:06:14;4.33;;;3.93;;
1082;SDS011;530;51.448;7.238;2022-10-14T14:09:03;5.40;;;3.97;;
1082;SDS011;530;51.448;7.238;2022-10-14T14:11:33;4.47;;;4.03;;
1082;SDS011;530;51.448;7.238;2022-10-14T14:14:08;4.90;;;4.30;;
1082;SDS011;530;51.448;7.238;2022-10-14T14:16:51;4.00;;;3.40;;
1082;SDS011;530;51.448;7.238;2022-10-14T14:19:32;5.50;;;3.90;;
1082;SDS011;530;51.448;7.238;2022-10-14T14:22:16;4.83;;;4.03;;
1082;SDS011;530;51.448;7.238;2022-10-14T14:24:43;4.00;;;3.60;;
1082;SDS011;530;51.448;7.238;2022-10-14T14:27:13;4.53;;;3.90;;
1082;SDS011;530;51.448;7.238;2022-10-14T14:29:45;3.97;;;3.60;;
1082;SDS011;530;51.448;7.238;2022-10-14T14:32:14;5.53;;;4.20;;
1082;SDS011;530;51.448;7.238;2022-10-14T14:34:43;4.40;;;4.00;;
1082;SDS011;530;51.448;7.238;2022-10-14T14:37:15;5.60;;;4.17;;
1082;SDS011;530;51.448;7.238;2022-10-14T14:40:01;4.30;;;3.90;;
1082;SDS011;530;51.448;7.238;2022-10-14T14:42:38;4.20;;;3.80;;
1082;SDS011;530;51.448;7.238;2022-10-14T14:45:06;3.97;;;3.57;;
1082;SDS011;530;51.448;7.238;2022-10-14T14:47:39;3.57;;;3.27;;
1082;SDS011;530;51.448;7.238;2022-10-14T14:50:05;3.13;;;2.83;;
1082;SDS011;530;51.448;7.238;2022-10-14T14:52:32;3.73;;;3.43;;
1082;SDS011;530;51.448;7.238;2022-10-14T14:54:58;4.47;;;3.30;;
1082;SDS011;530;51.448;7.238;2022-10-14T14:57:23;5.20;;;3.77;;
1082;SDS011;530;51.448;7.238;2022-10-14T15:00:00;3.67;;;3.37;;
1082;SDS011;530;51.448;7.238;2022-10-14T15:02:30;4.03;;;3.00;;
1082;SDS011;530;51.448;7.238;2022-10-14T15:05:02;3.30;;;3.00;;
1082;SDS011;530;51.448;7.238;2022-10-14T15:07:33;4.13;;;3.73;;
1082;SDS011;530;51.448;7.238;2022-10-14T15:10:00;4.00;;;3.60;;
1082;SDS011;530;51.448;7.238;2022-10-14T15:12:30;3.27;;;2.97;;
1082;SDS011;530;51.448;7.238;2022-10-14T15:15:21;5.83;;;2.93;;
1082;SDS011;530;51.448;7.238;2022-10-14T15:18:02;3.33;;;2.90;;
1082;SDS011;530;51.448;7.238;2022-10-14T15:20:50;2.80;;;2.60;;
1082;SDS011;530;51.448;7.238;2022-10-14T15:31:40;3.83;;;3.37;;
1082;SDS011;530;51.448;7.238;2022-10-14T15:34:13;3.30;;;3.00;;
1082;SDS011;530;51.448;7.238;2022-10-14T15:36:44;3.90;;;3.17;;
1082;SDS011;530;51.448;7.238;2022-10-14T15:39:12;3.60;;;3.13;;
1082;SDS011;530;51.448;7.238;2022-10-14T15:41:39;3.93;;;3.53;;
1082;SDS011;530;51.448;7.238;2022-10-14T15:44:05;3.80;;;3.50;;
1082;SDS011;530;51.448;7.238;2022-10-14T15:46:31;4.20;;;3.57;;
1082;SDS011;530;51.448;7.238;2022-10-14T15:49:23;4.27;;;3.90;;
1082;SDS011;530;51.448;7.238;2022-10-14T15:51:55;3.57;;;3.27;;
1082;SDS011;530;51.448;7.238;2022-10-14T15:54:20;4.27;;;3.87;;
1082;SDS011;530;51.448;7.238;2022-10-14T15:56:54;3.90;;;3.60;;
1082;SDS011;530;51.448;7.238;2022-10-14T15:59:23;4.60;;;4.20;;
1082;SDS011;530;51.448;7.238;2022-10-14T16:01:49;4.40;;;4.00;;
1082;SDS011;530;51.448;7.238;2022-10-14T16:04:16;4.50;;;4.20;;
1082;SDS011;530;51.448;7.238;2022-10-14T16:06:45;4.17;;;3.87;;
1082;SDS011;530;51.448;7.238;2022-10-14T16:09:11;4.70;;;4.20;;
1082;SDS011;530;51.448;7.238;2022-10-14T16:11:37;4.63;;;4.23;;
1082;SDS011;530;51.448;7.238;2022-10-14T16:14:03;4.40;;;3.90;;
1082;SDS011;530;51.448;7.238;2022-10-14T16:16:33;4.30;;;4.00;;
1082;SDS011;530;51.448;7.238;2022-10-14T16:19:01;4.67;;;4.27;;
1082;SDS011;530;51.448;7.238;2022-10-14T16:21:27;5.57;;;5.07;;
1082;SDS011;530;51.448;7.238;2022-10-14T16:23:57;5.43;;;4.93;;
1082;SDS011;530;51.448;7.238;2022-10-14T16:26:23;5.30;;;4.60;;
1082;SDS011;530;51.448;7.238;2022-10-14T16:28:50;4.60;;;4.20;;
1082;SDS011;530;51.448;7.238;2022-10-14T16:31:16;6.07;;;5.23;;
1082;SDS011;530;51.448;7.238;2022-10-14T16:33:42;4.77;;;4.37;;
1082;SDS011;530;51.448;7.238;2022-10-14T16:36:14;6.53;;;4.87;;
1082;SDS011;530;51.448;7.238;2022-10-14T16:38:41;6.97;;;5.63;;
1082;SDS011;530;51.448;7.238;2022-10-14T16:41:08;6.17;;;5.67;;
1082;SDS011;530;51.448;7.238;2022-10-14T16:43:35;6.17;;;5.57;;
1082;SDS011;530;51.448;7.238;2022-10-14T16:46:01;6.43;;;5.93;;
1082;SDS011;530;51.448;7.238;2022-10-14T16:48:28;7.40;;;6.80;;
1082;SDS011;530;51.448;7.238;2022-10-14T16:50:53;7.23;;;6.63;;
1082;SDS011;530;51.448;7.238;2022-10-14T16:53:19;7.87;;;7.27;;
1082;SDS011;530;51.448;7.238;2022-10-14T16:56:05;7.93;;;6.80;;
1082;SDS011;530;51.448;7.238;2022-10-14T16:59:00;7.50;;;6.80;;
1082;SDS011;530;51.448;7.238;2022-10-14T17:01:26;8.13;;;7.13;;
1082;SDS011;530;51.448;7.238;2022-10-14T17:03:53;8.57;;;7.87;;
1082;SDS011;530;51.448;7.238;2022-10-14T17:06:20;8.80;;;8.00;;
1082;SDS011;530;51.448;7.238;2022-10-14T17:08:46;8.03;;;7.33;;
1082;SDS011;530;51.448;7.238;2022-10-14T17:11:12;8.10;;;7.40;;
1082;SDS011;530;51.448;7.238;2022-10-14T17:13:38;10.77;;;9.77;;
1082;SDS011;530;51.448;7.238;2022-10-14T17:16:04;9.63;;;8.73;;
1082;SDS011;530;51.448;7.238;2022-10-14T17:18:31;9.10;;;8.30;;
1082;SDS011;530;51.448;7.238;2022-10-14T17:20:58;11.40;;;10.30;;
1082;SDS011;530;51.448;7.238;2022-10-14T17:23:31;13.00;;;8.97;;
1082;SDS011;530;51.448;7.238;2022-10-14T17:25:58;10.63;;;9.63;;
1082;SDS011;530;51.448;7.238;2022-10-14T17:28:23;9.43;;;8.53;;
1082;SDS011;530;51.448;7.238;2022-10-14T17:30:49;10.20;;;9.20;;
1082;SDS011;530;51.448;7.238;2022-10-14T17:33:15;9.60;;;8.63;;
1082;SDS011;530;51.448;7.238;2022-10-14T17:35:42;10.80;;;9.80;;
1082;SDS011;530;51.448;7.238;2022-10-14T17:38:07;9.60;;;8.70;;
1082;SDS011;530;51.448;7.238;2022-10-14T17:40:33;8.90;;;8.10;;
1082;SDS011;530;51.448;7.238;2022-10-14T17:42:59;10.90;;;9.90;;
1082;SDS011;530;51.448;7.238;2022-10-14T17:45:25;10.60;;;9.60;;
1082;SDS011;530;51.448;7.238;2022-10-14T17:47:55;10.90;;;9.90;;
1082;SDS011;530;51.448;7.238;2022-10-14T17:50:21;10.80;;;9.80;;
1082;SDS011;530;51.448;7.238;2022-10-14T17:52:49;10.17;;;8.83;;